sensor_id;sensor_type;location;lat;lon;timestamp;temperature;humidity
28023;DHT22;67403;50.104;8.758;2023-05-10T00:02:00;13.70;99.90
28023;DHT22;67403;50.104;8.758;2023-05-10T00:04:27;13.70;99.90
28023;DHT22;67403;50.104;8.758;2023-05-10T00:06:54;13.60;99.90
28023;DHT22;67403;50.104;8.758;2023-05-10T00:09:21;13.60;99.90
28023;DHT22;67403;50.104;8.758;2023-05-10T00:11:49;13.60;99.90
28023;DHT22;67403;50.104;8.758;2023-05-10T00:14:16;13.50;99.90
28023;DHT22;67403;50.104;8.758;2023-05-10T00:16:43;13.50;99.90
28023;DHT22;67403;50.104;8.758;2023-05-10T00:19:10;13.50;99.90
28023;DHT22;67403;50.104;8.758;2023-05-10T00:21:37;13.40;99.90
28023;DHT22;67403;50.104;8.758;2023-05-10T00:24:05;13.40;99.90
28023;DHT22;67403;50.104;8.758;2023-05-10T00:26:32;13.40;99.90
28023;DHT22;67403;50.104;8.758;2023-05-10T00:29:00;13.40;99.90
28023;DHT22;67403;50.104;8.758;2023-05-10T00:31:27;13.40;99.90
28023;DHT22;67403;50.104;8.758;2023-05-10T00:33:54;13.40;99.90
28023;DHT22;67403;50.104;8.758;2023-05-10T00:36:21;13.40;99.90
28023;DHT22;67403;50.104;8.758;2023-05-10T00:38:48;13.40;99.90
28023;DHT22;67403;50.104;8.758;2023-05-10T00:41:15;13.30;99.90
28023;DHT22;67403;50.104;8.758;2023-05-10T00:43:42;13.30;99.90
28023;DHT22;67403;50.104;8.758;2023-05-10T00:46:10;13.20;99.90
28023;DHT22;67403;50.104;8.758;2023-05-10T00:48:37;13.20;99.90
28023;DHT22;67403;50.104;8.758;2023-05-10T00:51:05;13.10;99.90
28023;DHT22;67403;50.104;8.758;2023-05-10T00:53:33;13.20;99.90
28023;DHT22;67403;50.104;8.758;2023-05-10T00:56:01;13.10;99.90
28023;DHT22;67403;50.104;8.758;2023-05-10T00:58:28;13.00;99.90
28023;DHT22;67403;50.104;8.758;2023-05-10T01:00:56;13.00;99.90
28023;DHT22;67403;50.104;8.758;2023-05-10T01:03:26;13.00;99.90
28023;DHT22;67403;50.104;8.758;2023-05-10T01:05:52;13.00;99.90
28023;DHT22;67403;50.104;8.758;2023-05-10T01:08:20;12.90;99.90
28023;DHT22;67403;50.104;8.758;2023-05-10T01:10:47;12.90;99.90
28023;DHT22;67403;50.104;8.758;2023-05-10T01:13:18;12.90;99.90
28023;DHT22;67403;50.104;8.758;2023-05-10T01:15:50;12.90;99.90
28023;DHT22;67403;50.104;8.758;2023-05-10T01:18:20;12.80;99.90
28023;DHT22;67403;50.104;8.758;2023-05-10T01:20:54;12.80;99.90
28023;DHT22;67403;50.104;8.758;2023-05-10T01:23:36;12.80;99.90
28023;DHT22;67403;50.104;8.758;2023-05-10T01:29:18;12.80;99.90
28023;DHT22;67403;50.104;8.758;2023-05-10T01:32:15;12.70;99.90
28023;DHT22;67403;50.104;8.758;2023-05-10T01:34:51;12.70;99.90
28023;DHT22;67403;50.104;8.758;2023-05-10T01:37:24;12.70;99.90
28023;DHT22;67403;50.104;8.758;2023-05-10T01:39:58;12.70;99.90
28023;DHT22;67403;50.104;8.758;2023-05-10T01:42:29;12.60;99.90
28023;DHT22;67403;50.104;8.758;2023-05-10T01:45:04;12.60;99.90
28023;DHT22;67403;50.104;8.758;2023-05-10T01:47:38;12.60;99.90
28023;DHT22;67403;50.104;8.758;2023-05-10T01:50:10;12.60;99.90
28023;DHT22;67403;50.104;8.758;2023-05-10T01:52:41;12.60;99.90
28023;DHT22;67403;50.104;8.758;2023-05-10T01:55:13;12.60;99.90
28023;DHT22;67403;50.104;8.758;2023-05-10T01:57:43;12.60;99.90
28023;DHT22;67403;50.104;8.758;2023-05-10T02:00:11;12.60;99.90
28023;DHT22;67403;50.104;8.758;2023-05-10T02:02:41;12.50;99.90
28023;DHT22;67403;50.104;8.758;2023-05-10T02:05:12;12.50;99.90
28023;DHT22;67403;50.104;8.758;2023-05-10T02:07:39;12.50;99.90
28023;DHT22;67403;50.104;8.758;2023-05-10T02:10:08;12.50;99.90
28023;DHT22;67403;50.104;8.758;2023-05-10T02:12:37;12.50;99.90
28023;DHT22;67403;50.104;8.758;2023-05-10T02:15:07;12.50;99.90
28023;DHT22;67403;50.104;8.758;2023-05-10T02:17:35;12.50;99.90
28023;DHT22;67403;50.104;8.758;2023-05-10T02:20:07;12.50;99.90
28023;DHT22;67403;50.104;8.758;2023-05-10T02:22:35;12.40;99.90
28023;DHT22;67403;50.104;8.758;2023-05-10T02:25:04;12.40;99.90
28023;DHT22;67403;50.104;8.758;2023-05-10T02:27:32;12.40;99.90
28023;DHT22;67403;50.104;8.758;2023-05-10T02:30:00;12.50;99.90
28023;DHT22;67403;50.104;8.758;2023-05-10T02:32:29;12.40;99.90
28023;DHT22;67403;50.104;8.758;2023-05-10T02:34:57;12.40;99.90
28023;DHT22;67403;50.104;8.758;2023-05-10T02:37:26;12.40;99.90
28023;DHT22;67403;50.104;8.758;2023-05-10T02:39:55;12.40;99.90
28023;DHT22;67403;50.104;8.758;2023-05-10T02:42:25;12.40;99.90
28023;DHT22;67403;50.104;8.758;2023-05-10T02:44:54;12.50;99.90
28023;DHT22;67403;50.104;8.758;2023-05-10T02:47:23;12.50;99.90
28023;DHT22;67403;50.104;8.758;2023-05-10T02:49:49;12.50;99.90
28023;DHT22;67403;50.104;8.758;2023-05-10T02:52:21;12.50;99.90
28023;DHT22;67403;50.104;8.758;2023-05-10T02:54:54;12.50;99.90
28023;DHT22;67403;50.104;8.758;2023-05-10T02:57:25;12.50;99.90
28023;DHT22;67403;50.104;8.758;2023-05-10T02:59:53;12.50;99.90
28023;DHT22;67403;50.104;8.758;2023-05-10T03:02:20;12.40;99.90
28023;DHT22;67403;50.104;8.758;2023-05-10T03:04:47;12.40;99.90
28023;DHT22;67403;50.104;8.758;2023-05-10T03:07:14;12.40;99.90
28023;DHT22;67403;50.104;8.758;2023-05-10T03:09:42;12.40;99.90
28023;DHT22;67403;50.104;8.758;2023-05-10T03:12:15;12.40;99.90
28023;DHT22;67403;50.104;8.758;2023-05-10T03:14:52;12.40;99.90
28023;DHT22;67403;50.104;8.758;2023-05-10T03:17:30;12.40;99.90
28023;DHT22;67403;50.104;8.758;2023-05-10T03:20:00;12.40;99.90
28023;DHT22;67403;50.104;8.758;2023-05-10T03:22:31;12.40;99.90
28023;DHT22;67403;50.104;8.758;2023-05-10T03:25:00;12.40;99.90
28023;DHT22;67403;50.104;8.758;2023-05-10T03:27:31;12.40;99.90
28023;DHT22;67403;50.104;8.758;2023-05-10T03:29:59;12.40;99.90
28023;DHT22;67403;50.104;8.758;2023-05-10T03:32:26;12.40;99.90
28023;DHT22;67403;50.104;8.758;2023-05-10T03:34:53;12.40;99.90
28023;DHT22;67403;50.104;8.758;2023-05-10T03:37:20;12.30;99.90
28023;DHT22;67403;50.104;8.758;2023-05-10T03:39:47;12.30;99.90
28023;DHT22;67403;50.104;8.758;2023-05-10T03:42:14;12.30;99.90
28023;DHT22;67403;50.104;8.758;2023-05-10T03:44:44;12.30;99.90
28023;DHT22;67403;50.104;8.758;2023-05-10T03:47:11;12.30;99.90
28023;DHT22;67403;50.104;8.758;2023-05-10T03:49:38;12.30;99.90
28023;DHT22;67403;50.104;8.758;2023-05-10T03:52:05;12.30;99.90
28023;DHT22;67403;50.104;8.758;2023-05-10T03:54:32;12.40;99.90
28023;DHT22;67403;50.104;8.758;2023-05-10T03:56:59;12.40;99.90
28023;DHT22;67403;50.104;8.758;2023-05-10T03:59:26;12.40;99.90
28023;DHT22;67403;50.104;8.758;2023-05-10T04:01:55;12.40;99.90
28023;DHT22;67403;50.104;8.758;2023-05-10T04:04:22;12.40;99.90
28023;DHT22;67403;50.104;8.758;2023-05-10T04:06:49;12.50;99.90
28023;DHT22;67403;50.104;8.758;2023-05-10T04:09:15;12.50;99.90
28023;DHT22;67403;50.104;8.758;2023-05-10T04:11:43;12.40;99.90
28023;DHT22;67403;50.104;8.758;2023-05-10T04:14:10;12.40;99.90
28023;DHT22;67403;50.104;8.758;2023-05-10T04:16:36;12.40;99.90
28023;DHT22;67403;50.104;8.758;2023-05-10T04:19:04;12.40;99.90
28023;DHT22;67403;50.104;8.758;2023-05-10T04:21:32;12.40;99.90
28023;DHT22;67403;50.104;8.758;2023-05-10T04:23:58;12.40;99.90
28023;DHT22;67403;50.104;8.758;2023-05-10T04:26:25;12.50;99.90
28023;DHT22;67403;50.104;8.758;2023-05-10T04:28:52;12.40;99.90
28023;DHT22;67403;50.104;8.758;2023-05-10T04:31:19;12.50;99.90
28023;DHT22;67403;50.104;8.758;2023-05-10T04:33:46;12.50;99.90
28023;DHT22;67403;50.104;8.758;2023-05-10T04:36:14;12.50;99.90
28023;DHT22;67403;50.104;8.758;2023-05-10T04:38:41;12.50;99.90
28023;DHT22;67403;50.104;8.758;2023-05-10T04:41:09;12.50;99.90
28023;DHT22;67403;50.104;8.758;2023-05-10T04:43:36;12.60;99.90
28023;DHT22;67403;50.104;8.758;2023-05-10T04:46:04;12.60;99.90
28023;DHT22;67403;50.104;8.758;2023-05-10T04:48:31;12.70;99.90
28023;DHT22;67403;50.104;8.758;2023-05-10T04:50:58;12.70;99.90
28023;DHT22;67403;50.104;8.758;2023-05-10T04:53:26;12.80;99.90
28023;DHT22;67403;50.104;8.758;2023-05-10T04:55:53;12.80;99.90
28023;DHT22;67403;50.104;8.758;2023-05-10T04:58:20;12.80;99.90
28023;DHT22;67403;50.104;8.758;2023-05-10T05:00:47;12.80;99.90
28023;DHT22;67403;50.104;8.758;2023-05-10T05:03:14;12.80;99.90
28023;DHT22;67403;50.104;8.758;2023-05-10T05:05:41;12.80;99.90
28023;DHT22;67403;50.104;8.758;2023-05-10T05:08:08;12.90;99.90
28023;DHT22;67403;50.104;8.758;2023-05-10T05:10:36;12.90;99.90
28023;DHT22;67403;50.104;8.758;2023-05-10T05:13:03;12.90;99.90
28023;DHT22;67403;50.104;8.758;2023-05-10T05:15:30;12.90;99.90
28023;DHT22;67403;50.104;8.758;2023-05-10T05:17:57;13.00;99.90
28023;DHT22;67403;50.104;8.758;2023-05-10T05:20:24;13.00;99.90
28023;DHT22;67403;50.104;8.758;2023-05-10T05:22:50;13.00;99.90
28023;DHT22;67403;50.104;8.758;2023-05-10T05:25:17;13.00;99.90
28023;DHT22;67403;50.104;8.758;2023-05-10T05:27:45;13.00;99.90
28023;DHT22;67403;50.104;8.758;2023-05-10T05:30:12;13.00;99.90
28023;DHT22;67403;50.104;8.758;2023-05-10T05:32:39;13.00;99.90
28023;DHT22;67403;50.104;8.758;2023-05-10T05:35:07;13.00;99.90
28023;DHT22;67403;50.104;8.758;2023-05-10T05:37:34;13.00;99.90
28023;DHT22;67403;50.104;8.758;2023-05-10T05:40:01;13.00;99.90
28023;DHT22;67403;50.104;8.758;2023-05-10T05:42:28;13.00;99.90
28023;DHT22;67403;50.104;8.758;2023-05-10T05:44:56;13.00;99.90
28023;DHT22;67403;50.104;8.758;2023-05-10T05:47:23;13.10;99.90
28023;DHT22;67403;50.104;8.758;2023-05-10T05:49:50;13.10;99.90
28023;DHT22;67403;50.104;8.758;2023-05-10T05:52:17;13.00;99.90
28023;DHT22;67403;50.104;8.758;2023-05-10T05:54:44;13.10;99.90
28023;DHT22;67403;50.104;8.758;2023-05-10T05:57:11;13.10;99.90
28023;DHT22;67403;50.104;8.758;2023-05-10T05:59:38;13.10;99.90
28023;DHT22;67403;50.104;8.758;2023-05-10T06:02:09;13.20;99.90
28023;DHT22;67403;50.104;8.758;2023-05-10T06:04:36;13.20;99.90
28023;DHT22;67403;50.104;8.758;2023-05-10T06:07:03;13.20;99.90
28023;DHT22;67403;50.104;8.758;2023-05-10T06:09:30;13.30;99.90
28023;DHT22;67403;50.104;8.758;2023-05-10T06:11:57;13.40;99.90
28023;DHT22;67403;50.104;8.758;2023-05-10T06:14:24;13.50;99.90
28023;DHT22;67403;50.104;8.758;2023-05-10T06:16:51;13.50;99.90
28023;DHT22;67403;50.104;8.758;2023-05-10T06:19:19;13.60;99.90
28023;DHT22;67403;50.104;8.758;2023-05-10T06:21:46;13.60;99.90
28023;DHT22;67403;50.104;8.758;2023-05-10T06:24:13;13.70;99.90
28023;DHT22;67403;50.104;8.758;2023-05-10T06:26:39;13.70;99.90
28023;DHT22;67403;50.104;8.758;2023-05-10T06:29:06;13.70;99.90
28023;DHT22;67403;50.104;8.758;2023-05-10T06:31:33;13.60;99.90
28023;DHT22;67403;50.104;8.758;2023-05-10T06:34:00;13.70;99.90
28023;DHT22;67403;50.104;8.758;2023-05-10T06:36:32;13.70;99.90
28023;DHT22;67403;50.104;8.758;2023-05-10T06:38:58;13.60;99.90
28023;DHT22;67403;50.104;8.758;2023-05-10T06:41:25;13.60;99.90
28023;DHT22;67403;50.104;8.758;2023-05-10T06:43:52;13.70;99.90
28023;DHT22;67403;50.104;8.758;2023-05-10T06:46:19;13.70;99.90
28023;DHT22;67403;50.104;8.758;2023-05-10T06:48:46;13.70;99.90
28023;DHT22;67403;50.104;8.758;2023-05-10T06:51:13;14.00;99.90
28023;DHT22;67403;50.104;8.758;2023-05-10T06:53:41;14.00;99.90
28023;DHT22;67403;50.104;8.758;2023-05-10T06:56:08;14.10;99.90
28023;DHT22;67403;50.104;8.758;2023-05-10T06:58:35;14.10;99.90
28023;DHT22;67403;50.104;8.758;2023-05-10T07:01:02;14.00;99.90
28023;DHT22;67403;50.104;8.758;2023-05-10T07:03:29;14.00;99.90
28023;DHT22;67403;50.104;8.758;2023-05-10T07:06:00;14.10;99.90
28023;DHT22;67403;50.104;8.758;2023-05-10T07:08:29;14.10;99.90
28023;DHT22;67403;50.104;8.758;2023-05-10T07:11:01;14.20;99.90
28023;DHT22;67403;50.104;8.758;2023-05-10T07:13:29;14.40;99.90
28023;DHT22;67403;50.104;8.758;2023-05-10T07:15:57;14.60;99.90
28023;DHT22;67403;50.104;8.758;2023-05-10T07:18:24;14.60;99.90
28023;DHT22;67403;50.104;8.758;2023-05-10T07:20:51;14.70;99.90
28023;DHT22;67403;50.104;8.758;2023-05-10T07:23:18;14.60;99.90
28023;DHT22;67403;50.104;8.758;2023-05-10T07:25:45;14.70;99.90
28023;DHT22;67403;50.104;8.758;2023-05-10T07:28:14;14.70;99.90
28023;DHT22;67403;50.104;8.758;2023-05-10T07:30:42;14.80;99.90
28023;DHT22;67403;50.104;8.758;2023-05-10T07:33:10;14.80;99.90
28023;DHT22;67403;50.104;8.758;2023-05-10T07:35:37;14.70;99.90
28023;DHT22;67403;50.104;8.758;2023-05-10T07:38:04;14.70;99.90
28023;DHT22;67403;50.104;8.758;2023-05-10T07:40:32;14.70;99.90
28023;DHT22;67403;50.104;8.758;2023-05-10T07:42:58;14.80;99.90
28023;DHT22;67403;50.104;8.758;2023-05-10T07:45:28;14.80;99.90
28023;DHT22;67403;50.104;8.758;2023-05-10T07:47:55;15.10;99.90
28023;DHT22;67403;50.104;8.758;2023-05-10T07:50:22;15.10;99.90
28023;DHT22;67403;50.104;8.758;2023-05-10T07:52:49;15.10;99.90
28023;DHT22;67403;50.104;8.758;2023-05-10T07:55:18;15.20;99.90
28023;DHT22;67403;50.104;8.758;2023-05-10T07:57:45;15.10;99.90
28023;DHT22;67403;50.104;8.758;2023-05-10T08:00:13;15.00;99.90
28023;DHT22;67403;50.104;8.758;2023-05-10T08:02:44;15.20;99.90
28023;DHT22;67403;50.104;8.758;2023-05-10T08:05:11;15.40;99.90
28023;DHT22;67403;50.104;8.758;2023-05-10T08:07:39;15.60;99.90
28023;DHT22;67403;50.104;8.758;2023-05-10T08:10:07;15.70;99.90
28023;DHT22;67403;50.104;8.758;2023-05-10T08:12:34;15.80;99.90
28023;DHT22;67403;50.104;8.758;2023-05-10T08:15:02;16.00;99.90
28023;DHT22;67403;50.104;8.758;2023-05-10T08:17:28;16.20;99.90
28023;DHT22;67403;50.104;8.758;2023-05-10T08:19:57;16.30;99.90
28023;DHT22;67403;50.104;8.758;2023-05-10T08:22:24;16.80;99.90
28023;DHT22;67403;50.104;8.758;2023-05-10T08:24:51;16.90;99.90
28023;DHT22;67403;50.104;8.758;2023-05-10T08:27:18;17.00;99.90
28023;DHT22;67403;50.104;8.758;2023-05-10T08:29:45;16.90;99.90
28023;DHT22;67403;50.104;8.758;2023-05-10T08:32:12;16.80;99.90
28023;DHT22;67403;50.104;8.758;2023-05-10T08:34:39;17.00;99.90
28023;DHT22;67403;50.104;8.758;2023-05-10T08:37:07;17.30;99.90
28023;DHT22;67403;50.104;8.758;2023-05-10T08:39:34;17.70;99.90
28023;DHT22;67403;50.104;8.758;2023-05-10T08:42:03;17.60;99.90
28023;DHT22;67403;50.104;8.758;2023-05-10T08:44:32;17.30;99.90
28023;DHT22;67403;50.104;8.758;2023-05-10T08:47:04;17.50;99.90
28023;DHT22;67403;50.104;8.758;2023-05-10T08:49:32;17.30;99.90
28023;DHT22;67403;50.104;8.758;2023-05-10T08:52:02;17.20;99.90
28023;DHT22;67403;50.104;8.758;2023-05-10T08:54:33;17.20;99.90
28023;DHT22;67403;50.104;8.758;2023-05-10T08:57:00;17.30;99.90
28023;DHT22;67403;50.104;8.758;2023-05-10T08:59:28;17.20;99.90
28023;DHT22;67403;50.104;8.758;2023-05-10T09:01:57;17.30;99.90
28023;DHT22;67403;50.104;8.758;2023-05-10T09:04:24;17.10;99.90
28023;DHT22;67403;50.104;8.758;2023-05-10T09:06:51;17.20;99.90
28023;DHT22;67403;50.104;8.758;2023-05-10T09:09:19;17.20;99.90
28023;DHT22;67403;50.104;8.758;2023-05-10T09:11:48;17.30;99.90
28023;DHT22;67403;50.104;8.758;2023-05-10T09:14:15;17.60;99.90
28023;DHT22;67403;50.104;8.758;2023-05-10T09:16:43;17.60;99.90
28023;DHT22;67403;50.104;8.758;2023-05-10T09:19:10;17.50;99.90
28023;DHT22;67403;50.104;8.758;2023-05-10T09:21:37;17.60;99.90
28023;DHT22;67403;50.104;8.758;2023-05-10T09:24:05;17.40;99.90
28023;DHT22;67403;50.104;8.758;2023-05-10T09:26:32;17.20;99.90
28023;DHT22;67403;50.104;8.758;2023-05-10T09:29:03;17.10;99.90
28023;DHT22;67403;50.104;8.758;2023-05-10T09:31:47;17.20;99.90
28023;DHT22;67403;50.104;8.758;2023-05-10T09:34:17;17.10;99.90
28023;DHT22;67403;50.104;8.758;2023-05-10T09:36:54;17.00;99.90
28023;DHT22;67403;50.104;8.758;2023-05-10T09:39:30;17.00;99.90
28023;DHT22;67403;50.104;8.758;2023-05-10T09:41:58;17.10;99.90
28023;DHT22;67403;50.104;8.758;2023-05-10T09:44:27;17.10;99.90
28023;DHT22;67403;50.104;8.758;2023-05-10T09:46:54;17.30;99.90
28023;DHT22;67403;50.104;8.758;2023-05-10T09:49:21;17.00;99.90
28023;DHT22;67403;50.104;8.758;2023-05-10T09:52:00;17.00;99.90
28023;DHT22;67403;50.104;8.758;2023-05-10T09:54:27;16.60;99.90
28023;DHT22;67403;50.104;8.758;2023-05-10T09:56:54;16.20;99.90
28023;DHT22;67403;50.104;8.758;2023-05-10T09:59:21;16.10;99.90
28023;DHT22;67403;50.104;8.758;2023-05-10T10:01:53;16.00;99.90
28023;DHT22;67403;50.104;8.758;2023-05-10T10:04:22;16.00;99.90
28023;DHT22;67403;50.104;8.758;2023-05-10T10:06:59;16.20;99.90
28023;DHT22;67403;50.104;8.758;2023-05-10T10:09:27;16.40;99.90
28023;DHT22;67403;50.104;8.758;2023-05-10T10:11:54;16.50;99.90
28023;DHT22;67403;50.104;8.758;2023-05-10T10:14:22;16.50;99.90
28023;DHT22;67403;50.104;8.758;2023-05-10T10:16:49;16.50;99.90
28023;DHT22;67403;50.104;8.758;2023-05-10T10:19:18;16.30;99.90
28023;DHT22;67403;50.104;8.758;2023-05-10T10:21:45;15.90;99.90
28023;DHT22;67403;50.104;8.758;2023-05-10T10:24:12;15.50;99.90
28023;DHT22;67403;50.104;8.758;2023-05-10T10:26:41;14.90;99.90
28023;DHT22;67403;50.104;8.758;2023-05-10T10:29:18;14.70;99.90
28023;DHT22;67403;50.104;8.758;2023-05-10T10:31:50;14.60;99.90
28023;DHT22;67403;50.104;8.758;2023-05-10T10:34:26;14.60;99.90
28023;DHT22;67403;50.104;8.758;2023-05-10T10:36:55;14.80;99.90
28023;DHT22;67403;50.104;8.758;2023-05-10T10:39:24;14.80;99.90
28023;DHT22;67403;50.104;8.758;2023-05-10T10:41:53;14.80;99.90
28023;DHT22;67403;50.104;8.758;2023-05-10T10:44:34;15.00;99.90
28023;DHT22;67403;50.104;8.758;2023-05-10T10:47:08;15.10;99.90
28023;DHT22;67403;50.104;8.758;2023-05-10T10:49:49;15.10;99.90
28023;DHT22;67403;50.104;8.758;2023-05-10T10:52:24;15.20;99.90
28023;DHT22;67403;50.104;8.758;2023-05-10T10:54:58;15.40;99.90
28023;DHT22;67403;50.104;8.758;2023-05-10T10:57:26;15.30;99.90
28023;DHT22;67403;50.104;8.758;2023-05-10T11:00:21;15.30;99.90
28023;DHT22;67403;50.104;8.758;2023-05-10T11:02:50;15.10;99.90
28023;DHT22;67403;50.104;8.758;2023-05-10T11:05:37;15.00;99.90
28023;DHT22;67403;50.104;8.758;2023-05-10T11:08:10;14.90;99.90
28023;DHT22;67403;50.104;8.758;2023-05-10T11:10:37;14.80;99.90
28023;DHT22;67403;50.104;8.758;2023-05-10T11:13:06;14.80;99.90
28023;DHT22;67403;50.104;8.758;2023-05-10T11:15:35;14.90;99.90
28023;DHT22;67403;50.104;8.758;2023-05-10T11:18:17;15.10;99.90
28023;DHT22;67403;50.104;8.758;2023-05-10T11:20:50;15.30;99.90
28023;DHT22;67403;50.104;8.758;2023-05-10T11:23:17;15.50;99.90
28023;DHT22;67403;50.104;8.758;2023-05-10T11:25:45;15.70;99.90
28023;DHT22;67403;50.104;8.758;2023-05-10T11:28:13;15.70;99.90
28023;DHT22;67403;50.104;8.758;2023-05-10T11:30:41;15.90;99.90
28023;DHT22;67403;50.104;8.758;2023-05-10T11:33:15;16.00;99.90
28023;DHT22;67403;50.104;8.758;2023-05-10T11:35:42;16.10;99.90
28023;DHT22;67403;50.104;8.758;2023-05-10T11:38:11;16.10;99.90
28023;DHT22;67403;50.104;8.758;2023-05-10T11:40:39;16.10;99.90
28023;DHT22;67403;50.104;8.758;2023-05-10T11:43:06;16.00;99.90
28023;DHT22;67403;50.104;8.758;2023-05-10T11:45:35;16.20;99.90
28023;DHT22;67403;50.104;8.758;2023-05-10T11:48:02;16.30;99.90
28023;DHT22;67403;50.104;8.758;2023-05-10T11:50:29;16.10;99.90
28023;DHT22;67403;50.104;8.758;2023-05-10T11:52:57;16.10;99.90
28023;DHT22;67403;50.104;8.758;2023-05-10T11:55:25;16.00;99.90
28023;DHT22;67403;50.104;8.758;2023-05-10T11:57:53;16.00;99.90
28023;DHT22;67403;50.104;8.758;2023-05-10T12:00:21;16.00;99.90
28023;DHT22;67403;50.104;8.758;2023-05-10T12:02:48;16.10;99.90
28023;DHT22;67403;50.104;8.758;2023-05-10T12:05:16;16.30;99.90
28023;DHT22;67403;50.104;8.758;2023-05-10T12:07:43;16.30;99.90
28023;DHT22;67403;50.104;8.758;2023-05-10T12:10:12;16.20;99.90
28023;DHT22;67403;50.104;8.758;2023-05-10T12:12:43;16.10;99.90
28023;DHT22;67403;50.104;8.758;2023-05-10T12:15:11;16.10;99.90
28023;DHT22;67403;50.104;8.758;2023-05-10T12:17:38;15.90;99.90
28023;DHT22;67403;50.104;8.758;2023-05-10T12:20:19;16.00;99.90
28023;DHT22;67403;50.104;8.758;2023-05-10T12:22:49;16.10;99.90
28023;DHT22;67403;50.104;8.758;2023-05-10T12:25:16;16.40;99.90
28023;DHT22;67403;50.104;8.758;2023-05-10T12:27:53;16.70;99.90
28023;DHT22;67403;50.104;8.758;2023-05-10T12:30:21;17.10;99.90
28023;DHT22;67403;50.104;8.758;2023-05-10T12:32:49;17.70;99.90
28023;DHT22;67403;50.104;8.758;2023-05-10T12:35:16;18.50;99.90
28023;DHT22;67403;50.104;8.758;2023-05-10T12:37:44;19.50;99.90
28023;DHT22;67403;50.104;8.758;2023-05-10T12:40:11;20.30;99.90
28023;DHT22;67403;50.104;8.758;2023-05-10T12:42:39;20.70;99.90
28023;DHT22;67403;50.104;8.758;2023-05-10T12:45:08;20.70;99.90
28023;DHT22;67403;50.104;8.758;2023-05-10T12:47:35;20.90;99.90
28023;DHT22;67403;50.104;8.758;2023-05-10T12:50:03;21.70;99.90
28023;DHT22;67403;50.104;8.758;2023-05-10T12:52:31;21.70;99.90
28023;DHT22;67403;50.104;8.758;2023-05-10T12:54:59;22.10;99.90
28023;DHT22;67403;50.104;8.758;2023-05-10T12:57:26;22.10;99.90
28023;DHT22;67403;50.104;8.758;2023-05-10T12:59:54;21.60;99.90
28023;DHT22;67403;50.104;8.758;2023-05-10T13:02:22;21.80;99.90
28023;DHT22;67403;50.104;8.758;2023-05-10T13:04:49;22.40;99.90
28023;DHT22;67403;50.104;8.758;2023-05-10T13:07:16;22.90;99.90
28023;DHT22;67403;50.104;8.758;2023-05-10T13:09:43;22.10;99.90
28023;DHT22;67403;50.104;8.758;2023-05-10T13:12:10;21.80;99.90
28023;DHT22;67403;50.104;8.758;2023-05-10T13:14:37;21.50;99.90
28023;DHT22;67403;50.104;8.758;2023-05-10T13:17:06;22.10;99.90
28023;DHT22;67403;50.104;8.758;2023-05-10T13:19:34;21.40;99.90
28023;DHT22;67403;50.104;8.758;2023-05-10T13:22:02;20.80;99.90
28023;DHT22;67403;50.104;8.758;2023-05-10T13:24:29;20.00;99.90
28023;DHT22;67403;50.104;8.758;2023-05-10T13:26:56;19.40;99.90
28023;DHT22;67403;50.104;8.758;2023-05-10T13:29:23;19.30;99.90
28023;DHT22;67403;50.104;8.758;2023-05-10T13:31:50;19.70;99.90
28023;DHT22;67403;50.104;8.758;2023-05-10T13:34:17;20.60;99.90
28023;DHT22;67403;50.104;8.758;2023-05-10T13:36:47;21.30;99.90
28023;DHT22;67403;50.104;8.758;2023-05-10T13:39:14;21.90;99.90
28023;DHT22;67403;50.104;8.758;2023-05-10T13:41:41;21.80;99.90
28023;DHT22;67403;50.104;8.758;2023-05-10T13:44:09;22.10;99.90
28023;DHT22;67403;50.104;8.758;2023-05-10T13:46:36;21.80;99.90
28023;DHT22;67403;50.104;8.758;2023-05-10T13:49:05;22.60;99.90
28023;DHT22;67403;50.104;8.758;2023-05-10T13:51:33;23.40;99.90
28023;DHT22;67403;50.104;8.758;2023-05-10T13:54:01;23.10;99.90
28023;DHT22;67403;50.104;8.758;2023-05-10T13:56:28;21.90;99.90
28023;DHT22;67403;50.104;8.758;2023-05-10T13:58:56;21.60;99.90
28023;DHT22;67403;50.104;8.758;2023-05-10T14:01:23;21.40;99.90
28023;DHT22;67403;50.104;8.758;2023-05-10T14:03:50;21.80;99.90
28023;DHT22;67403;50.104;8.758;2023-05-10T14:06:17;22.00;99.90
28023;DHT22;67403;50.104;8.758;2023-05-10T14:08:44;21.80;99.90
28023;DHT22;67403;50.104;8.758;2023-05-10T14:11:13;22.10;99.90
28023;DHT22;67403;50.104;8.758;2023-05-10T14:13:40;22.10;99.90
28023;DHT22;67403;50.104;8.758;2023-05-10T14:16:07;22.20;99.90
28023;DHT22;67403;50.104;8.758;2023-05-10T14:18:34;22.50;99.90
28023;DHT22;67403;50.104;8.758;2023-05-10T14:21:02;22.70;99.90
28023;DHT22;67403;50.104;8.758;2023-05-10T14:23:29;22.90;99.90
28023;DHT22;67403;50.104;8.758;2023-05-10T14:25:56;22.40;99.90
28023;DHT22;67403;50.104;8.758;2023-05-10T14:28:25;22.50;99.90
28023;DHT22;67403;50.104;8.758;2023-05-10T14:30:52;22.10;99.90
28023;DHT22;67403;50.104;8.758;2023-05-10T14:33:19;21.70;99.90
28023;DHT22;67403;50.104;8.758;2023-05-10T14:35:46;21.70;99.90
28023;DHT22;67403;50.104;8.758;2023-05-10T14:38:13;21.30;99.90
28023;DHT22;67403;50.104;8.758;2023-05-10T14:40:40;21.10;99.90
28023;DHT22;67403;50.104;8.758;2023-05-10T14:43:07;20.70;99.90
28023;DHT22;67403;50.104;8.758;2023-05-10T14:45:35;20.40;99.90
28023;DHT22;67403;50.104;8.758;2023-05-10T14:48:02;20.20;99.90
28023;DHT22;67403;50.104;8.758;2023-05-10T14:50:30;20.40;99.90
28023;DHT22;67403;50.104;8.758;2023-05-10T14:52:57;20.50;99.90
28023;DHT22;67403;50.104;8.758;2023-05-10T14:55:24;20.30;99.90
28023;DHT22;67403;50.104;8.758;2023-05-10T14:57:51;20.70;99.90
28023;DHT22;67403;50.104;8.758;2023-05-10T15:00:18;21.40;99.90
28023;DHT22;67403;50.104;8.758;2023-05-10T15:02:47;21.40;99.90
28023;DHT22;67403;50.104;8.758;2023-05-10T15:05:14;20.90;99.90
28023;DHT22;67403;50.104;8.758;2023-05-10T15:07:41;20.50;99.90
28023;DHT22;67403;50.104;8.758;2023-05-10T15:10:09;20.60;99.90
28023;DHT22;67403;50.104;8.758;2023-05-10T15:12:37;20.60;99.90
28023;DHT22;67403;50.104;8.758;2023-05-10T15:15:05;20.70;99.90
28023;DHT22;67403;50.104;8.758;2023-05-10T15:17:32;20.40;99.90
28023;DHT22;67403;50.104;8.758;2023-05-10T15:20:01;20.30;99.90
28023;DHT22;67403;50.104;8.758;2023-05-10T15:22:29;20.20;99.90
28023;DHT22;67403;50.104;8.758;2023-05-10T15:24:57;20.50;99.90
28023;DHT22;67403;50.104;8.758;2023-05-10T15:27:24;21.00;99.90
28023;DHT22;67403;50.104;8.758;2023-05-10T15:29:51;21.00;99.90
28023;DHT22;67403;50.104;8.758;2023-05-10T15:32:18;20.60;99.90
28023;DHT22;67403;50.104;8.758;2023-05-10T15:34:45;20.80;99.90
28023;DHT22;67403;50.104;8.758;2023-05-10T15:37:13;20.60;99.90
28023;DHT22;67403;50.104;8.758;2023-05-10T15:39:40;20.80;99.90
28023;DHT22;67403;50.104;8.758;2023-05-10T15:42:07;21.10;99.90